Time;durP1;ratioP1;P1;durP2;ratioP2;P2;SDS_P1;SDS_P2;PMS_P1;PMS_P2;Temp;Humidity;BMP_temperature;BMP_pressure;BME280_temperature;BME280_humidity;BME280_pressure;Samples;Min_cycle;Max_cycle;Signal;HPM_P1;HPM_P2
2021/12/12 00:01:00;;;;;;;137.98;43.35;;;2.70;99.90;;;;;;12503426;28;20132;-91
2021/12/12 00:07:07;;;;;;;131.98;39.45;;;2.70;99.90;;;;;;12476202;28;20604;-89
2021/12/12 00:13:36;;;;;;;127.78;39.65;;;2.60;99.90;;;;;;12467124;28;20577;-91
2021/12/12 00:19:39;;;;;;;111.15;37.22;;;2.60;99.90;;;;;;12453854;28;20639;-88
2021/12/12 00:25:50;;;;;;;113.65;37.47;;;2.60;99.90;;;;;;12469153;28;20172;-89
2021/12/12 00:31:57;;;;;;;107.60;35.72;;;2.60;99.90;;;;;;12470699;28;20050;-89
2021/12/12 00:38:07;;;;;;;97.68;37.95;;;2.60;99.90;;;;;;12487491;28;20084;-91
2021/12/12 00:44:11;;;;;;;103.70;35.28;;;2.60;99.90;;;;;;12475832;28;20055;-90
2021/12/12 00:50:23;;;;;;;92.87;35.73;;;2.60;99.90;;;;;;12482909;28;20186;-92
2021/12/12 00:56:25;;;;;;;98.20;35.95;;;2.60;99.90;;;;;;12464885;28;20187;-91
2021/12/12 01:02:30;;;;;;;97.03;35.97;;;2.60;99.90;;;;;;12478620;28;20041;-89
2021/12/12 01:08:33;;;;;;;87.07;33.58;;;2.70;99.90;;;;;;12473944;28;20063;-89
2021/12/12 01:14:41;;;;;;;83.22;32.13;;;2.80;99.90;;;;;;12474288;28;20049;-89
2021/12/12 01:20:52;;;;;;;76.78;30.58;;;2.80;99.90;;;;;;12463821;28;20119;-90
2021/12/12 01:26:55;;;;;;;67.47;27.33;;;2.80;99.90;;;;;;12467954;28;20513;-89
2021/12/12 01:32:58;;;;;;;64.30;26.67;;;2.80;99.90;;;;;;12465008;28;20564;-91
2021/12/12 01:39:00;;;;;;;57.35;24.40;;;2.90;99.90;;;;;;12466112;28;20053;-90
2021/12/12 01:45:24;;;;;;;56.80;23.25;;;3.00;99.90;;;;;;12467568;28;20739;-90
2021/12/12 01:51:29;;;;;;;50.33;23.52;;;3.00;99.90;;;;;;12451859;28;20103;-89
2021/12/12 01:57:35;;;;;;;45.90;20.50;;;3.00;99.90;;;;;;12460992;28;20055;-89
2021/12/12 02:03:43;;;;;;;47.05;21.73;;;3.10;99.90;;;;;;12458609;28;20901;-86
2021/12/12 02:09:48;;;;;;;42.25;19.40;;;3.10;99.90;;;;;;12461302;28;20056;-88
2021/12/12 02:15:54;;;;;;;43.00;16.23;;;3.10;99.90;;;;;;12456448;28;20045;-89
2021/12/12 02:22:15;;;;;;;36.38;15.48;;;3.10;99.90;;;;;;12471877;28;20084;-89
2021/12/12 02:41:06;;;;;;;28.20;14.30;;;3.30;99.90;;;;;;12473103;28;20147;-90
2021/12/12 02:47:14;;;;;;;30.00;14.25;;;3.20;99.90;;;;;;12458206;28;20049;-90
2021/12/12 02:53:30;;;;;;;29.65;14.30;;;3.20;99.90;;;;;;12455921;28;20045;-88
2021/12/12 02:59:34;;;;;;;28.92;13.45;;;3.30;99.90;;;;;;12463697;28;20041;-89
2021/12/12 03:05:41;;;;;;;29.60;12.27;;;3.30;99.90;;;;;;12456579;28;20124;-89
2021/12/12 03:11:45;;;;;;;23.42;11.80;;;3.30;99.90;;;;;;12460022;28;20052;-89
2021/12/12 03:17:50;;;;;;;29.13;12.70;;;3.30;99.90;;;;;;12478126;28;20045;-89
2021/12/12 03:23:55;;;;;;;22.00;11.23;;;3.40;99.90;;;;;;12451813;28;20075;-89
2021/12/12 03:29:56;;;;;;;;;;;3.40;99.90;;;;;;12463207;28;20144;-89
2021/12/12 03:36:00;;;;;;;27.38;10.13;;;3.40;99.90;;;;;;12469589;28;19924;-89
2021/12/12 03:42:11;;;;;;;20.10;9.50;;;3.40;99.90;;;;;;12466635;28;20036;-90
2021/12/12 03:48:22;;;;;;;15.57;8.45;;;3.40;99.90;;;;;;12473023;28;20152;-89
2021/12/12 03:54:24;;;;;;;19.48;7.82;;;3.40;99.90;;;;;;12434784;28;20057;-90
2021/12/12 04:00:49;;;;;;;17.90;8.30;;;3.40;99.90;;;;;;12429561;28;20056;-91
2021/12/12 04:06:52;;;;;;;18.15;7.88;;;3.40;99.90;;;;;;12446360;28;20100;-90
2021/12/12 04:12:54;;;;;;;20.92;7.93;;;3.40;99.90;;;;;;12445806;28;20045;-91
2021/12/12 04:18:58;;;;;;;16.65;7.22;;;3.40;99.90;;;;;;12437918;28;20056;-89
2021/12/12 04:25:00;;;;;;;11.90;5.72;;;3.40;99.90;;;;;;12445124;28;20050;-88
2021/12/12 04:31:02;;;;;;;12.77;6.70;;;3.50;99.90;;;;;;12433761;28;20042;-88
2021/12/12 04:37:05;;;;;;;15.75;5.93;;;3.60;99.90;;;;;;12439127;28;20604;-89
2021/12/12 04:43:08;;;;;;;;;;;3.70;99.90;;;;;;12428692;28;20049;-91
2021/12/12 04:56:12;;;;;;;13.05;4.40;;;3.70;99.90;;;;;;12476617;28;20091;-89
2021/12/12 05:02:21;;;;;;;11.98;4.63;;;3.80;99.90;;;;;;12468630;28;20050;-90
2021/12/12 05:08:48;;;;;;;12.35;4.30;;;3.80;99.90;;;;;;12461563;28;20053;-90
2021/12/12 05:14:55;;;;;;;15.95;4.32;;;3.80;99.90;;;;;;12462872;28;20053;-90
2021/12/12 05:21:03;;;;;;;12.52;4.35;;;3.80;99.90;;;;;;12461195;28;20657;-91
2021/12/12 05:27:15;;;;;;;14.07;4.50;;;3.70;99.90;;;;;;12479279;28;20049;-89
2021/12/12 05:33:17;;;;;;;16.95;4.47;;;3.60;99.90;;;;;;12464639;28;20056;-90
2021/12/12 05:39:21;;;;;;;15.05;4.05;;;3.70;99.90;;;;;;12468007;28;20102;-90
2021/12/12 05:45:23;;;;;;;11.68;4.20;;;3.60;99.90;;;;;;12467534;28;20060;-90
2021/12/12 05:51:28;;;;;;;10.57;3.90;;;3.60;99.90;;;;;;12460179;28;20046;-89
2021/12/12 05:57:34;;;;;;;12.55;3.63;;;3.50;99.90;;;;;;12467256;28;20474;-90
2021/12/12 06:03:39;;;;;;;10.15;3.90;;;3.50;99.90;;;;;;12458854;28;20184;-90
2021/12/12 06:09:42;;;;;;;12.45;3.67;;;3.50;99.90;;;;;;12456057;28;20466;-89
2021/12/12 06:15:49;;;;;;;12.25;4.38;;;3.50;99.90;;;;;;12457141;28;20053;-89
2021/12/12 06:21:54;;;;;;;11.57;4.25;;;3.50;99.90;;;;;;12463414;28;20116;-89
2021/12/12 06:27:56;;;;;;;13.68;4.45;;;3.50;99.90;;;;;;12463946;28;20596;-90
2021/12/12 06:33:58;;;;;;;10.20;4.20;;;3.50;99.90;;;;;;12462819;28;20057;-89
2021/12/12 06:40:00;;;;;;;17.45;4.80;;;3.50;99.90;;;;;;12462301;28;20534;-89
2021/12/12 06:46:06;;;;;;;13.13;4.30;;;3.50;99.90;;;;;;12462008;28;20421;-89
2021/12/12 06:52:11;;;;;;;16.90;3.75;;;3.50;99.90;;;;;;12483986;28;20459;-89
2021/12/12 06:58:15;;;;;;;10.95;3.55;;;3.60;99.90;;;;;;12476399;28;20453;-89
2021/12/12 07:04:20;;;;;;;13.32;3.85;;;3.70;99.90;;;;;;12476707;28;20377;-91
2021/12/12 07:10:26;;;;;;;11.80;3.20;;;3.80;99.90;;;;;;12503539;28;20045;-90
2021/12/12 07:16:28;;;;;;;9.70;2.95;;;3.80;99.90;;;;;;12469273;28;20059;-90
2021/12/12 07:22:31;;;;;;;8.15;2.47;;;3.80;99.90;;;;;;12465016;28;20051;-89
2021/12/12 07:28:36;;;;;;;9.80;2.53;;;3.90;99.90;;;;;;12465407;28;20072;-89
2021/12/12 07:34:38;;;;;;;12.75;2.88;;;4.00;99.90;;;;;;12463499;28;20084;-91
2021/12/12 07:40:45;;;;;;;10.52;2.67;;;4.00;99.90;;;;;;12460382;28;20168;-90
2021/12/12 07:46:49;;;;;;;7.25;2.85;;;4.00;99.90;;;;;;12464368;28;20046;-89
2021/12/12 07:52:52;;;;;;;11.37;2.33;;;4.00;99.90;;;;;;12467768;28;20048;-89
2021/12/12 07:58:53;;;;;;;11.15;3.35;;;4.00;99.90;;;;;;12468114;28;20057;-88
2021/12/12 08:04:56;;;;;;;9.20;2.67;;;4.10;99.90;;;;;;12484989;28;20073;-90
2021/12/12 08:10:59;;;;;;;8.05;2.63;;;4.20;99.90;;;;;;12476403;28;20420;-88
2021/12/12 08:17:02;;;;;;;16.75;3.40;;;4.20;99.90;;;;;;12464109;28;20050;-90
2021/12/12 08:23:07;;;;;;;13.82;3.25;;;4.20;99.90;;;;;;12464842;28;20057;-89
2021/12/12 08:29:11;;;;;;;11.63;3.50;;;4.20;99.90;;;;;;12497079;28;20057;-89
2021/12/12 08:35:15;;;;;;;15.23;3.47;;;4.30;99.90;;;;;;12459131;28;20049;-88
2021/12/12 08:41:17;;;;;;;14.90;3.92;;;4.30;99.90;;;;;;12460963;28;20527;-89
2021/12/12 08:47:20;;;;;;;13.07;3.63;;;4.20;99.90;;;;;;12466084;28;20143;-89
2021/12/12 08:53:24;;;;;;;13.75;4.03;;;4.20;99.90;;;;;;12468860;28;20046;-91
2021/12/12 08:59:27;;;;;;;17.23;3.87;;;4.30;99.90;;;;;;12468851;28;20072;-90
2021/12/12 09:05:33;;;;;;;11.93;4.07;;;4.30;99.90;;;;;;12457432;28;20786;-90
2021/12/12 09:12:10;;;;;;;18.23;5.10;;;4.40;99.90;;;;;;12481689;28;20398;-89
2021/12/12 09:18:19;;;;;;;10.15;4.03;;;4.40;99.90;;;;;;12467863;28;20147;-90
2021/12/12 09:24:26;;;;;;;10.80;4.32;;;4.40;99.90;;;;;;12467753;28;20041;-88
2021/12/12 09:30:28;;;;;;;13.82;4.53;;;4.50;99.90;;;;;;12459054;28;20111;-91
2021/12/12 09:36:42;;;;;;;9.48;4.22;;;4.50;99.90;;;;;;12459180;28;20064;-90
2021/12/12 09:42:59;;;;;;;11.43;4.07;;;4.50;99.90;;;;;;12481154;28;20305;-90
2021/12/12 09:56:14;;;;;;;6.95;3.42;;;4.60;99.90;;;;;;12482109;28;20163;-91
2021/12/12 10:02:33;;;;;;;10.43;3.90;;;4.60;99.90;;;;;;12476516;28;20041;-90
2021/12/12 10:08:59;;;;;;;10.77;3.40;;;4.70;99.90;;;;;;12473921;28;20139;-91
2021/12/12 10:15:07;;;;;;;12.43;4.38;;;4.80;99.90;;;;;;12478751;28;20057;-91
2021/12/12 10:21:38;;;;;;;8.80;4.13;;;4.80;99.90;;;;;;12470235;28;20108;-89
2021/12/12 10:28:06;;;;;;;7.32;4.75;;;4.80;99.90;;;;;;12474164;28;20641;-92
2021/12/12 10:34:26;;;;;;;7.93;3.72;;;4.90;99.90;;;;;;12465238;28;20080;-91
2021/12/12 10:40:35;;;;;;;9.80;5.55;;;4.90;99.90;;;;;;12460117;28;20100;-90
2021/12/12 10:47:01;;;;;;;8.20;4.45;;;4.90;99.90;;;;;;12471215;28;20575;-89
2021/12/12 10:53:43;;;;;;;9.43;5.97;;;4.90;99.90;;;;;;12463333;28;20071;-90
2021/12/12 10:59:55;;;;;;;12.00;6.22;;;4.90;99.90;;;;;;12453171;28;20329;-91
2021/12/12 11:06:08;;;;;;;12.20;6.20;;;4.90;99.90;;;;;;12441942;28;20063;-90
2021/12/12 11:12:48;;;;;;;10.40;7.07;;;5.00;99.90;;;;;;12464221;28;20045;-90
2021/12/12 11:19:15;;;;;;;10.00;6.20;;;5.10;99.90;;;;;;12428735;28;20084;-90
2021/12/12 11:25:22;;;;;;;9.27;6.60;;;5.10;99.90;;;;;;12423408;28;20529;-90
2021/12/12 11:31:35;;;;;;;13.50;8.30;;;5.10;99.90;;;;;;12466024;28;20098;-89
2021/12/12 11:37:41;;;;;;;13.70;8.07;;;5.20;99.90;;;;;;12462633;28;20045;-89
2021/12/12 11:44:07;;;;;;;11.80;7.45;;;5.30;99.90;;;;;;12481235;28;20161;-92
2021/12/12 11:50:36;;;;;;;11.15;7.93;;;5.30;99.90;;;;;;12461734;28;20553;-89
2021/12/12 11:56:45;;;;;;;;;;;5.40;99.90;;;;;;12474616;28;20049;-91
2021/12/12 12:03:23;;;;;;;16.58;9.68;;;5.40;99.90;;;;;;12464582;28;19925;-89
2021/12/12 12:09:54;;;;;;;14.95;10.73;;;5.40;99.90;;;;;;12480275;28;20053;-90
2021/12/12 12:16:39;;;;;;;17.73;11.88;;;5.50;99.90;;;;;;12462953;28;20139;-90
2021/12/12 12:23:00;;;;;;;16.50;11.18;;;5.60;99.90;;;;;;12466125;28;20051;-89
2021/12/12 12:29:30;;;;;;;15.55;11.20;;;5.70;99.90;;;;;;12458064;28;20489;-90
2021/12/12 12:35:57;;;;;;;12.48;9.70;;;5.70;99.90;;;;;;12464597;28;20055;-89
2021/12/12 12:42:02;;;;;;;13.15;9.40;;;5.70;99.90;;;;;;12473948;28;20410;-91
2021/12/12 12:48:13;;;;;;;;;;;5.80;99.90;;;;;;12484982;28;20049;-92
2021/12/12 12:54:23;;;;;;;10.10;7.93;;;5.80;99.90;;;;;;12494828;28;20385;-89
2021/12/12 13:00:28;;;;;;;11.20;8.00;;;5.90;99.90;;;;;;12461045;28;20076;-89
2021/12/12 13:07:04;;;;;;;9.23;7.93;;;6.00;99.90;;;;;;12461617;28;20053;-90
2021/12/12 13:13:17;;;;;;;11.38;7.88;;;6.00;99.90;;;;;;12466628;28;20082;-90
2021/12/12 13:19:42;;;;;;;10.70;7.28;;;6.10;99.90;;;;;;12480483;28;20079;-91
2021/12/12 13:25:56;;;;;;;9.73;7.60;;;6.20;99.90;;;;;;12460096;28;20095;-90
2021/12/12 13:32:14;;;;;;;13.30;8.90;;;6.20;99.90;;;;;;12458373;28;20567;-89
2021/12/12 13:38:20;;;;;;;11.90;8.40;;;6.30;99.90;;;;;;12461383;28;20051;-87
2021/12/12 13:44:59;;;;;;;8.98;7.40;;;6.30;99.90;;;;;;12461491;28;20048;-88
2021/12/12 13:51:09;;;;;;;12.02;8.55;;;6.30;99.90;;;;;;12451965;28;20049;-91
2021/12/12 13:57:16;;;;;;;11.90;8.63;;;6.30;99.90;;;;;;12455124;28;20041;-91
2021/12/12 14:03:24;;;;;;;12.10;8.75;;;6.30;99.90;;;;;;12458716;28;20470;-90
2021/12/12 14:09:28;;;;;;;11.18;9.32;;;6.30;99.90;;;;;;12472088;28;20624;-90
2021/12/12 14:15:34;;;;;;;10.60;8.80;;;6.40;99.90;;;;;;12466378;28;20048;-91
2021/12/12 14:21:37;;;;;;;11.18;8.63;;;6.40;99.90;;;;;;12453903;28;20044;-90
2021/12/12 14:27:45;;;;;;;9.70;7.97;;;6.40;99.90;;;;;;12456572;28;20318;-91
2021/12/12 14:33:52;;;;;;;10.18;8.27;;;6.50;99.90;;;;;;12464869;28;20084;-88
2021/12/12 14:40:02;;;;;;;10.52;8.45;;;6.50;99.90;;;;;;12452934;28;20060;-90
2021/12/12 14:46:14;;;;;;;9.40;7.85;;;6.50;99.90;;;;;;12455070;28;20311;-89
2021/12/12 14:52:22;;;;;;;10.45;8.20;;;6.60;99.90;;;;;;12459204;28;20049;-90
2021/12/12 14:58:28;;;;;;;10.45;8.82;;;6.60;99.90;;;;;;12457316;28;20654;-91
2021/12/12 15:04:40;;;;;;;10.68;8.48;;;6.50;99.90;;;;;;12456432;28;20111;-90
2021/12/12 15:11:08;;;;;;;12.07;9.57;;;6.60;99.90;;;;;;12468442;28;20706;-88
2021/12/12 15:17:15;;;;;;;12.02;8.85;;;6.60;99.90;;;;;;12454208;28;20048;-89
2021/12/12 15:23:20;;;;;;;11.88;9.32;;;6.70;99.90;;;;;;12471630;28;20073;-88
2021/12/12 15:29:26;;;;;;;13.25;10.25;;;6.60;99.90;;;;;;12465379;28;20079;-89
2021/12/12 15:35:32;;;;;;;14.13;10.73;;;6.70;99.90;;;;;;12465371;28;20839;-88
2021/12/12 15:41:38;;;;;;;14.70;10.75;;;6.70;99.90;;;;;;12482123;28;20408;-88
2021/12/12 15:47:42;;;;;;;13.63;10.70;;;6.70;99.90;;;;;;12448077;28;20060;-90
2021/12/12 15:53:53;;;;;;;16.52;11.75;;;6.70;99.90;;;;;;12473388;28;20635;-89
2021/12/12 16:00:01;;;;;;;15.27;11.25;;;6.70;99.90;;;;;;12497178;28;20167;-88
2021/12/12 16:06:03;;;;;;;16.48;12.48;;;6.80;99.90;;;;;;12467825;28;20053;-90
2021/12/12 16:12:10;;;;;;;17.52;12.77;;;6.90;99.90;;;;;;12483503;28;20398;-89
2021/12/12 16:18:15;;;;;;;18.40;14.15;;;6.90;99.90;;;;;;12494121;28;20163;-90
2021/12/12 16:24:34;;;;;;;20.10;14.10;;;6.90;99.90;;;;;;12464765;28;20048;-88
2021/12/12 16:30:44;;;;;;;21.30;14.80;;;6.90;99.90;;;;;;12483657;28;20539;-90
2021/12/12 16:37:00;;;;;;;22.80;15.70;;;7.00;99.90;;;;;;12478710;28;20107;-90
2021/12/12 16:43:12;;;;;;;24.08;17.02;;;7.00;99.90;;;;;;12476567;28;20357;-90
2021/12/12 16:49:21;;;;;;;22.73;15.48;;;7.00;99.90;;;;;;12449899;28;20061;-89
2021/12/12 16:55:30;;;;;;;22.90;16.30;;;7.00;99.90;;;;;;12461728;28;20645;-89
2021/12/12 17:01:42;;;;;;;24.15;17.52;;;7.10;99.90;;;;;;12477398;28;20252;-90
2021/12/12 17:07:51;;;;;;;25.00;16.98;;;7.10;99.90;;;;;;12463690;28;20126;-89
2021/12/12 17:13:54;;;;;;;23.92;16.95;;;7.10;99.90;;;;;;12459205;28;20159;-91
2021/12/12 17:20:07;;;;;;;26.35;18.20;;;7.10;99.90;;;;;;12465068;28;20059;-89
2021/12/12 17:26:11;;;;;;;25.30;18.83;;;7.20;99.90;;;;;;12454702;28;20446;-88
2021/12/12 17:32:28;;;;;;;28.53;18.53;;;7.20;99.90;;;;;;12469774;28;20073;-90
2021/12/12 17:38:53;;;;;;;26.92;19.27;;;7.20;99.90;;;;;;12458290;28;20625;-88
2021/12/12 17:45:01;;;;;;;30.02;19.75;;;7.20;99.90;;;;;;12497850;28;20066;-89
2021/12/12 17:51:21;;;;;;;32.50;20.17;;;7.20;99.90;;;;;;12471424;28;20348;-90
2021/12/12 17:57:32;;;;;;;30.95;20.10;;;7.20;99.90;;;;;;12468116;28;20080;-89
2021/12/12 18:03:39;;;;;;;31.23;20.35;;;7.30;99.90;;;;;;12483771;28;20551;-89
2021/12/12 18:09:40;;;;;;;33.60;21.20;;;7.30;99.90;;;;;;12471247;28;20148;-89
2021/12/12 18:15:50;;;;;;;32.35;20.95;;;7.30;99.90;;;;;;12464922;28;20069;-89
2021/12/12 18:21:55;;;;;;;37.42;22.05;;;7.40;99.90;;;;;;12460491;28;20053;-89
2021/12/12 18:28:01;;;;;;;37.42;22.83;;;7.30;99.90;;;;;;12466155;28;20140;-90
2021/12/12 18:34:07;;;;;;;40.05;24.45;;;7.40;99.90;;;;;;12474820;28;20045;-90
2021/12/12 18:40:19;;;;;;;38.38;22.63;;;7.40;99.90;;;;;;12463283;28;20055;-90
2021/12/12 18:46:27;;;;;;;39.65;23.65;;;7.40;99.90;;;;;;12466861;28;20076;-89
2021/12/12 18:52:32;;;;;;;40.53;23.63;;;7.40;99.90;;;;;;12465401;28;20612;-89
2021/12/12 18:58:42;;;;;;;40.20;22.95;;;7.40;99.90;;;;;;12459929;28;20619;-88
2021/12/12 19:04:51;;;;;;;41.30;24.45;;;7.40;99.90;;;;;;12470730;28;20506;-90
2021/12/12 19:10:55;;;;;;;40.55;23.67;;;7.40;99.90;;;;;;12485499;28;20508;-89
2021/12/12 19:16:59;;;;;;;;;;;7.50;99.90;;;;;;12482621;28;20072;-89
2021/12/12 19:23:02;;;;;;;32.95;20.73;;;7.50;99.90;;;;;;12464867;28;19964;-88
2021/12/12 19:29:08;;;;;;;37.70;23.00;;;7.50;99.90;;;;;;12473111;28;20052;-89
2021/12/12 19:35:25;;;;;;;38.88;23.17;;;7.50;99.90;;;;;;12463884;28;20069;-90
2021/12/12 19:41:29;;;;;;;37.15;22.35;;;7.50;99.90;;;;;;12497649;28;20053;-89
2021/12/12 19:47:31;;;;;;;33.83;21.02;;;7.60;99.90;;;;;;12502870;28;20056;-89
2021/12/12 19:53:53;;;;;;;33.70;20.95;;;7.60;99.90;;;;;;12473052;28;20053;-88
2021/12/12 20:00:09;;;;;;;31.52;18.88;;;7.60;99.90;;;;;;12470186;28;20083;-88
2021/12/12 20:06:25;;;;;;;27.83;17.35;;;7.60;99.90;;;;;;12509715;28;20545;-89
2021/12/12 20:12:31;;;;;;;29.58;18.73;;;7.70;99.90;;;;;;12507734;28;20076;-90
2021/12/12 20:18:41;;;;;;;31.90;19.77;;;7.70;99.90;;;;;;12491264;28;20049;-89
2021/12/12 20:24:52;;;;;;;41.20;20.77;;;7.70;99.90;;;;;;12469379;28;20049;-90
2021/12/12 20:31:07;;;;;;;42.35;22.25;;;7.70;99.90;;;;;;12489840;28;20234;-89
2021/12/12 20:37:10;;;;;;;39.70;22.15;;;7.70;99.90;;;;;;12473490;28;20044;-90
2021/12/12 20:43:22;;;;;;;42.10;21.77;;;7.70;99.90;;;;;;12489020;28;20073;-90
2021/12/12 20:49:29;;;;;;;38.55;21.63;;;7.80;99.90;;;;;;12468807;28;20061;-90
2021/12/12 20:55:40;;;;;;;33.78;19.42;;;7.80;99.90;;;;;;12410751;28;20495;-89
2021/12/12 21:01:49;;;;;;;38.92;21.00;;;7.90;99.90;;;;;;12409785;28;20144;-91
2021/12/12 21:07:54;;;;;;;37.30;20.80;;;7.80;99.90;;;;;;12408473;28;20520;-89
2021/12/12 21:13:57;;;;;;;37.78;19.60;;;7.90;99.90;;;;;;12412782;28;20045;-89
2021/12/12 21:20:11;;;;;;;39.20;20.08;;;7.90;99.90;;;;;;12423122;28;20045;-88
2021/12/12 21:26:24;;;;;;;34.88;19.70;;;7.90;99.90;;;;;;12424083;28;20428;-89
2021/12/12 21:32:28;;;;;;;34.42;19.50;;;7.90;99.90;;;;;;12415721;28;20493;-88
2021/12/12 21:38:30;;;;;;;;;;;7.90;99.90;;;;;;12412146;28;20076;-88
2021/12/12 21:44:41;;;;;;;36.35;19.42;;;7.90;99.90;;;;;;12415884;28;20009;-89
2021/12/12 21:50:47;;;;;;;34.92;18.38;;;8.00;99.90;;;;;;12424983;28;20041;-89
2021/12/12 21:56:51;;;;;;;36.30;18.33;;;8.00;99.90;;;;;;12453267;28;20084;-89
2021/12/12 22:02:56;;;;;;;36.33;18.85;;;8.00;99.90;;;;;;12449604;28;20139;-90
2021/12/12 22:09:09;;;;;;;44.55;20.90;;;8.10;99.90;;;;;;12450042;28;20045;-90
2021/12/12 22:15:16;;;;;;;44.47;21.48;;;8.10;99.90;;;;;;12447694;28;20041;-88
2021/12/12 22:21:20;;;;;;;50.15;21.90;;;8.10;99.90;;;;;;12448721;28;20056;-91
2021/12/12 22:27:31;;;;;;;57.55;24.13;;;8.10;99.90;;;;;;12455068;28;20053;-90
2021/12/12 22:33:41;;;;;;;53.10;23.17;;;8.10;99.90;;;;;;12462455;28;20323;-87
2021/12/12 22:39:53;;;;;;;50.85;22.45;;;8.20;99.90;;;;;;12470717;28;20053;-87
2021/12/12 22:46:05;;;;;;;49.22;21.92;;;8.20;99.90;;;;;;12459874;28;20168;-88
2021/12/12 22:52:14;;;;;;;53.45;23.45;;;8.30;99.90;;;;;;12465904;28;20075;-88
2021/12/12 22:58:21;;;;;;;55.58;23.13;;;8.40;99.90;;;;;;12463674;28;20438;-88
2021/12/12 23:04:45;;;;;;;60.72;24.60;;;8.40;99.90;;;;;;12474200;28;20037;-89
2021/12/12 23:10:54;;;;;;;69.20;23.70;;;8.40;99.90;;;;;;12466319;28;20051;-88
2021/12/12 23:17:04;;;;;;;62.25;23.90;;;8.40;99.90;;;;;;12464473;28;20052;-87
2021/12/12 23:23:16;;;;;;;63.72;24.30;;;8.50;99.90;;;;;;12447840;28;20059;-88
2021/12/12 23:29:21;;;;;;;69.97;24.30;;;8.40;99.90;;;;;;12466702;28;20049;-88
2021/12/12 23:35:29;;;;;;;74.88;26.83;;;8.50;99.90;;;;;;12467355;28;20496;-87
2021/12/12 23:41:35;;;;;;;79.28;27.88;;;8.40;99.90;;;;;;12464134;28;20053;-89
2021/12/12 23:47:40;;;;;;;84.22;28.33;;;8.50;99.90;;;;;;12456664;28;20059;-89
2021/12/12 23:53:49;;;;;;;82.15;28.67;;;8.50;99.90;;;;;;12457322;28;20103;-88
